Time;durP1;ratioP1;P1;durP2;ratioP2;P2;SDS_P1;SDS_P2;PMS_P1;PMS_P2;Temp;Humidity;BMP_temperature;BMP_pressure;BME280_temperature;BME280_humidity;BME280_pressure;Samples;Min_cycle;Max_cycle;Signal;HPM_P1;HPM_P2
2022/03/28 00:03:48;;;;;;;11.53;9.27;;;10.90;20.90;;;;;;10315558;28;20228;-75
2022/03/28 00:08:52;;;;;;;9.30;7.90;;;10.70;21.20;;;;;;10324279;28;20700;-75
2022/03/28 00:13:56;;;;;;;10.47;8.33;;;10.60;21.10;;;;;;10320754;28;20234;-75
2022/03/28 00:19:00;;;;;;;11.73;8.70;;;10.50;21.20;;;;;;10315693;28;20721;-75
2022/03/28 00:24:04;;;;;;;10.53;7.87;;;10.50;21.60;;;;;;10311386;28;20230;-75
2022/03/28 00:29:07;;;;;;;12.07;7.90;;;10.50;21.50;;;;;;10317065;28;20227;-75
2022/03/28 00:34:12;;;;;;;8.70;7.80;;;10.50;21.40;;;;;;10315689;28;20734;-75
2022/03/28 00:39:16;;;;;;;8.73;7.70;;;10.50;21.60;;;;;;10312668;28;20232;-75
2022/03/28 00:44:20;;;;;;;10.17;8.50;;;10.50;21.30;;;;;;10320220;28;20611;-75
2022/03/28 00:49:24;;;;;;;8.77;7.73;;;10.50;21.40;;;;;;10317353;28;20239;-75
2022/03/28 00:54:28;;;;;;;10.20;8.77;;;10.50;21.70;;;;;;10315301;28;20242;-75
2022/03/28 00:59:32;;;;;;;9.87;8.47;;;10.40;21.50;;;;;;10314130;28;20250;-75
2022/03/28 01:04:37;;;;;;;9.97;8.43;;;10.40;21.50;;;;;;10322817;28;20782;-75
2022/03/28 01:09:41;;;;;;;11.10;8.57;;;10.30;21.90;;;;;;10312284;28;20318;-75
2022/03/28 01:14:44;;;;;;;11.80;8.53;;;10.20;21.60;;;;;;10306523;28;20235;-75
2022/03/28 01:19:49;;;;;;;8.90;6.97;;;10.20;21.60;;;;;;10317816;28;20227;-75
2022/03/28 01:24:55;;;;;;;9.90;8.53;;;9.90;22.30;;;;;;10321381;28;20234;-75
2022/03/28 01:29:58;;;;;;;8.60;7.80;;;9.80;22.80;;;;;;10310249;28;20261;-75
2022/03/28 01:35:01;;;;;;;10.07;8.10;;;9.70;22.60;;;;;;10308208;28;20230;-75
2022/03/28 01:40:07;;;;;;;9.77;8.73;;;9.70;22.80;;;;;;10314620;28;20235;-75
2022/03/28 01:45:12;;;;;;;10.83;8.67;;;9.70;23.20;;;;;;10310910;28;20243;-75
2022/03/28 01:50:16;;;;;;;11.73;8.73;;;9.70;22.80;;;;;;10306884;28;20720;-75
2022/03/28 01:55:20;;;;;;;12.67;9.70;;;9.70;22.80;;;;;;10308539;28;20612;-75
2022/03/28 02:00:25;;;;;;;12.80;9.47;;;9.60;23.00;;;;;;10323363;28;20692;-75
2022/03/28 02:05:29;;;;;;;10.03;8.63;;;9.40;22.80;;;;;;10314615;28;20254;-74
2022/03/28 02:10:33;;;;;;;12.77;8.90;;;9.20;22.80;;;;;;10313218;28;20231;-74
2022/03/28 02:15:37;;;;;;;11.90;8.67;;;9.00;23.20;;;;;;10309130;28;20233;-74
2022/03/28 02:20:40;;;;;;;10.23;8.73;;;8.90;23.10;;;;;;10310052;28;20238;-73
2022/03/28 02:25:45;;;;;;;11.47;9.40;;;8.80;23.00;;;;;;10307970;28;20233;-73
2022/03/28 02:30:48;;;;;;;13.40;8.90;;;8.60;23.30;;;;;;10314567;28;20236;-73
2022/03/28 02:35:52;;;;;;;10.37;8.80;;;8.50;23.30;;;;;;10317708;28;20715;-73
2022/03/28 02:40:58;;;;;;;10.10;9.00;;;8.40;23.60;;;;;;10310136;28;20606;-74
2022/03/28 02:46:01;;;;;;;12.07;9.47;;;8.40;23.80;;;;;;10314787;28;20230;-73
2022/03/28 02:51:05;;;;;;;11.00;8.80;;;8.40;23.70;;;;;;10305355;28;20222;-74
2022/03/28 02:56:09;;;;;;;11.47;9.20;;;8.40;23.60;;;;;;10308066;28;20245;-73
2022/03/28 03:01:12;;;;;;;9.20;8.03;;;8.40;23.90;;;;;;10305761;28;20266;-73
2022/03/28 03:06:16;;;;;;;10.43;9.30;;;8.50;23.60;;;;;;10321649;28;20706;-73
2022/03/28 03:11:20;;;;;;;8.13;7.33;;;8.50;23.70;;;;;;10314188;28;20704;-74
2022/03/28 03:16:24;;;;;;;9.97;8.17;;;8.50;23.80;;;;;;10306886;28;20231;-74
2022/03/28 03:21:27;;;;;;;8.77;7.83;;;8.50;23.60;;;;;;10315981;28;20233;-74
2022/03/28 03:26:32;;;;;;;12.97;9.30;;;8.40;23.60;;;;;;10316600;28;20239;-74
2022/03/28 03:31:35;;;;;;;15.13;10.87;;;8.50;23.90;;;;;;10313556;28;20237;-74
2022/03/28 03:36:38;;;;;;;30.03;21.47;;;8.40;23.70;;;;;;10324566;28;20240;-74
2022/03/28 03:41:43;;;;;;;36.60;26.23;;;8.20;23.60;;;;;;10317193;28;20242;-74
2022/03/28 03:46:47;;;;;;;33.67;22.87;;;8.00;23.80;;;;;;10326629;28;20243;-74
2022/03/28 03:51:50;;;;;;;23.20;18.17;;;7.80;23.90;;;;;;10315646;28;20228;-74
2022/03/28 03:56:54;;;;;;;22.93;16.57;;;7.70;24.00;;;;;;10320757;28;20235;-74
2022/03/28 04:01:57;;;;;;;14.07;10.97;;;7.70;24.50;;;;;;10312381;28;20243;-74
2022/03/28 04:07:01;;;;;;;14.73;9.80;;;7.80;24.30;;;;;;10304592;28;20241;-74
2022/03/28 04:12:06;;;;;;;9.37;8.37;;;7.70;24.10;;;;;;10311870;28;20222;-74
2022/03/28 04:17:09;;;;;;;14.90;8.40;;;7.60;24.40;;;;;;10323112;28;20246;-74
2022/03/28 04:22:13;;;;;;;13.50;8.93;;;7.50;24.20;;;;;;10317191;28;20238;-74
2022/03/28 04:27:17;;;;;;;10.07;8.47;;;7.40;24.20;;;;;;10310821;28;20743;-74
2022/03/28 04:32:20;;;;;;;9.47;7.87;;;7.30;24.50;;;;;;10309502;28;20227;-73
2022/03/28 04:37:23;;;;;;;10.73;7.40;;;7.30;24.50;;;;;;10308392;28;20246;-74
2022/03/28 04:42:28;;;;;;;9.77;8.20;;;7.20;24.60;;;;;;10311195;28;20700;-74
2022/03/28 04:47:31;;;;;;;8.70;7.40;;;7.20;25.00;;;;;;10309277;28;20231;-73
2022/03/28 04:52:35;;;;;;;9.80;8.90;;;7.20;24.60;;;;;;10318760;28;20241;-74
2022/03/28 04:57:40;;;;;;;10.07;8.83;;;7.20;24.70;;;;;;10310317;28;20227;-74
2022/03/28 05:02:43;;;;;;;8.73;7.67;;;7.20;25.00;;;;;;10327193;28;20235;-75
2022/03/28 05:07:47;;;;;;;9.07;8.07;;;7.20;24.80;;;;;;10334544;28;20223;-77
2022/03/28 05:12:52;;;;;;;11.60;8.17;;;7.20;24.70;;;;;;10325307;28;20233;-76
2022/03/28 05:17:55;;;;;;;9.80;8.73;;;7.20;25.70;;;;;;10329855;28;20235;-75
2022/03/28 05:22:58;;;;;;;9.17;8.27;;;7.30;25.20;;;;;;10323556;28;20580;-75
2022/03/28 05:28:03;;;;;;;11.13;7.80;;;7.30;25.00;;;;;;10338944;28;20236;-75
2022/03/28 05:33:07;;;;;;;14.60;9.60;;;7.30;25.20;;;;;;10317427;28;20235;-75
2022/03/28 05:38:11;;;;;;;10.10;8.60;;;7.30;25.20;;;;;;10332919;28;20964;-75
2022/03/28 05:43:16;;;;;;;14.13;8.67;;;7.20;25.10;;;;;;10318535;28;20242;-75
2022/03/28 05:48:19;;;;;;;9.73;8.73;;;7.20;25.40;;;;;;10316087;28;20234;-75
2022/03/28 05:53:23;;;;;;;13.67;8.40;;;7.20;25.30;;;;;;10330094;28;20234;-76
2022/03/28 05:58:28;;;;;;;12.23;8.57;;;7.20;25.40;;;;;;10336769;28;20234;-75
2022/03/28 06:03:32;;;;;;;10.03;9.00;;;7.10;25.80;;;;;;10334437;28;20574;-75
2022/03/28 06:08:38;;;;;;;12.03;8.73;;;7.10;25.60;;;;;;10327781;28;20234;-75
2022/03/28 06:13:43;;;;;;;11.70;8.80;;;7.20;25.80;;;;;;10329520;28;20223;-75
2022/03/28 06:18:46;;;;;;;9.87;8.70;;;7.20;26.30;;;;;;10317981;28;20738;-75
2022/03/28 06:23:50;;;;;;;11.13;9.07;;;7.20;26.00;;;;;;10326453;28;20715;-75
2022/03/28 06:28:55;;;;;;;10.63;8.70;;;7.20;26.30;;;;;;10316026;28;20297;-75
2022/03/28 06:34:02;;;;;;;13.27;9.57;;;7.30;26.60;;;;;;10324993;28;20234;-75
2022/03/28 06:39:05;;;;;;;14.03;9.30;;;7.30;27.00;;;;;;10327566;28;20235;-75
2022/03/28 06:44:11;;;;;;;11.10;8.90;;;7.40;26.60;;;;;;10329081;28;20241;-75
2022/03/28 06:49:15;;;;;;;10.10;9.10;;;7.60;27.10;;;;;;10324407;28;20246;-75
2022/03/28 06:54:19;;;;;;;13.70;10.07;;;7.70;27.00;;;;;;10330005;28;20231;-75
2022/03/28 06:59:24;;;;;;;11.47;10.23;;;7.80;27.20;;;;;;10320698;28;20238;-75
2022/03/28 07:04:27;;;;;;;13.77;11.30;;;7.90;27.70;;;;;;10321823;28;20243;-75
2022/03/28 07:09:30;;;;;;;13.10;10.30;;;8.10;27.90;;;;;;10316586;28;20223;-75
2022/03/28 07:14:34;;;;;;;13.47;10.93;;;8.30;28.00;;;;;;10314507;28;20261;-75
2022/03/28 07:19:38;;;;;;;11.57;10.30;;;8.40;28.10;;;;;;10310686;28;20222;-75
2022/03/28 07:24:41;;;;;;;13.67;10.23;;;8.70;28.30;;;;;;10311207;28;20235;-75
2022/03/28 07:29:46;;;;;;;11.43;10.23;;;8.90;28.40;;;;;;10320134;28;20237;-75
2022/03/28 07:34:50;;;;;;;12.03;10.37;;;9.10;28.50;;;;;;10318427;28;20235;-75
2022/03/28 07:39:53;;;;;;;13.33;11.50;;;9.40;28.50;;;;;;10318856;28;20234;-75
2022/03/28 07:44:58;;;;;;;11.13;10.03;;;9.60;28.40;;;;;;10322762;28;20234;-75
2022/03/28 07:50:02;;;;;;;16.30;12.63;;;9.90;29.00;;;;;;10314663;28;20284;-75
2022/03/28 07:55:08;;;;;;;15.63;11.90;;;10.20;28.10;;;;;;10321171;28;20235;-75
2022/03/28 08:00:16;;;;;;;13.40;12.03;;;10.40;28.30;;;;;;10323437;28;20589;-76
2022/03/28 08:05:27;;;;;;;12.73;11.33;;;10.70;28.50;;;;;;10328645;28;20246;-75
2022/03/28 08:10:30;;;;;;;19.67;12.47;;;11.10;27.90;;;;;;10328272;28;20237;-77
2022/03/28 08:15:35;;;;;;;16.07;12.87;;;11.40;28.10;;;;;;10324734;28;20245;-76
2022/03/28 08:20:38;;;;;;;14.83;12.43;;;11.80;28.30;;;;;;10325350;28;20721;-75
2022/03/28 08:25:42;;;;;;;16.00;12.70;;;12.10;28.00;;;;;;10319676;28;20238;-75
2022/03/28 08:30:47;;;;;;;15.47;12.90;;;12.40;27.90;;;;;;10318730;28;20232;-76
2022/03/28 08:35:50;;;;;;;15.27;12.90;;;12.70;28.00;;;;;;10317213;28;20227;-77
2022/03/28 08:40:55;;;;;;;14.80;12.90;;;13.00;27.80;;;;;;10323989;28;20243;-77
2022/03/28 08:46:02;;;;;;;14.23;12.53;;;13.40;27.70;;;;;;10331937;28;20230;-78
2022/03/28 08:51:06;;;;;;;15.10;12.70;;;13.70;28.00;;;;;;10325664;28;20223;-77
2022/03/28 08:56:09;;;;;;;15.27;12.27;;;14.00;27.50;;;;;;10332106;28;20231;-77
2022/03/28 09:01:36;;;;;;;13.83;12.23;;;14.30;27.40;;;;;;10327437;28;20238;-76
2022/03/28 09:06:42;;;;;;;15.63;13.10;;;14.70;27.40;;;;;;10333203;28;20245;-76
2022/03/28 09:11:48;;;;;;;17.00;13.03;;;15.10;27.60;;;;;;10326263;28;20226;-76
2022/03/28 09:17:05;;;;;;;15.73;13.37;;;15.40;27.50;;;;;;10318848;28;20227;-77
2022/03/28 09:22:11;;;;;;;16.73;13.23;;;15.80;27.50;;;;;;10319770;28;20382;-75
2022/03/28 09:27:17;;;;;;;14.80;12.47;;;16.20;27.10;;;;;;10327411;28;20246;-76
2022/03/28 09:32:23;;;;;;;14.13;12.50;;;16.50;26.80;;;;;;10327507;28;20230;-76
2022/03/28 09:37:27;;;;;;;14.60;13.10;;;16.80;26.70;;;;;;10316566;28;20877;-77
2022/03/28 09:42:30;;;;;;;15.43;13.37;;;17.20;26.60;;;;;;10332964;28;20228;-77
2022/03/28 09:47:34;;;;;;;13.77;12.03;;;17.50;26.40;;;;;;10323704;28;20235;-76
2022/03/28 09:52:44;;;;;;;14.27;12.87;;;17.90;25.90;;;;;;10330486;28;20296;-75
2022/03/28 09:57:47;;;;;;;15.40;13.17;;;18.20;25.60;;;;;;10315966;28;20242;-75
2022/03/28 10:02:53;;;;;;;14.13;12.67;;;18.50;25.30;;;;;;10317609;28;20230;-75
2022/03/28 10:07:57;;;;;;;14.27;12.13;;;18.80;25.70;;;;;;10318305;28;20234;-78
2022/03/28 10:13:02;;;;;;;14.47;12.97;;;19.00;24.90;;;;;;10315643;28;20257;-77
2022/03/28 10:18:07;;;;;;;14.67;12.33;;;19.20;24.80;;;;;;10321547;28;20770;-78
2022/03/28 10:23:13;;;;;;;14.83;12.30;;;19.40;24.50;;;;;;10322212;28;20318;-76
2022/03/28 10:28:20;;;;;;;14.20;12.40;;;19.70;25.00;;;;;;10320800;28;20227;-78
2022/03/28 10:33:25;;;;;;;15.50;12.70;;;19.90;23.90;;;;;;10323952;28;20234;-75
2022/03/28 10:38:29;;;;;;;13.60;12.00;;;20.10;23.50;;;;;;10317908;28;20234;-76
2022/03/28 10:43:35;;;;;;;12.77;11.00;;;20.30;23.60;;;;;;10328625;28;20242;-75
2022/03/28 10:48:41;;;;;;;12.67;10.50;;;20.40;22.80;;;;;;10322043;28;20232;-75
2022/03/28 10:53:47;;;;;;;13.40;11.17;;;20.70;22.20;;;;;;10315579;28;20241;-75
2022/03/28 10:58:52;;;;;;;12.90;10.60;;;20.90;22.40;;;;;;10329698;28;20235;-75
2022/03/28 11:04:00;;;;;;;13.47;11.20;;;21.10;20.60;;;;;;10306493;28;20231;-76
2022/03/28 11:09:04;;;;;;;10.90;9.70;;;21.20;19.70;;;;;;10316563;28;20317;-76
2022/03/28 11:14:10;;;;;;;12.30;10.40;;;21.20;20.80;;;;;;10311039;28;20601;-75
2022/03/28 11:19:27;;;;;;;13.17;10.67;;;21.40;20.00;;;;;;10311361;28;20238;-74
2022/03/28 11:24:48;;;;;;;12.70;10.70;;;21.50;19.10;;;;;;10309203;28;20238;-75
2022/03/28 11:30:00;;;;;;;14.77;12.57;;;21.70;16.60;;;;;;10307801;28;20231;-74
2022/03/28 11:35:09;;;;;;;10.87;9.63;;;21.80;19.40;;;;;;10305537;28;20228;-74
2022/03/28 11:40:13;;;;;;;13.20;10.30;;;21.90;19.10;;;;;;10317378;28;20591;-74
2022/03/28 11:45:18;;;;;;;11.67;10.40;;;22.10;19.20;;;;;;10316353;28;20235;-75
2022/03/28 11:50:23;;;;;;;11.67;10.13;;;22.20;18.90;;;;;;10327922;28;20249;-75
2022/03/28 11:55:29;;;;;;;12.40;10.77;;;22.30;18.10;;;;;;10330201;28;20238;-75
2022/03/28 12:00:32;;;;;;;11.40;9.90;;;22.30;18.00;;;;;;10322980;28;20235;-75
2022/03/28 12:05:39;;;;;;;13.30;10.83;;;22.40;18.20;;;;;;10321645;28;20893;-75
2022/03/28 12:10:46;;;;;;;12.37;10.57;;;22.40;17.30;;;;;;10320468;28;20317;-76
2022/03/28 12:15:51;;;;;;;13.83;11.37;;;22.40;17.70;;;;;;10326358;28;20236;-76
2022/03/28 12:20:56;;;;;;;12.27;10.97;;;22.40;17.20;;;;;;10319530;28;20230;-76
2022/03/28 12:26:03;;;;;;;13.00;10.97;;;22.50;17.40;;;;;;10321392;28;20238;-76
2022/03/28 12:31:08;;;;;;;12.03;10.77;;;22.50;16.90;;;;;;10321432;28;20235;-75
2022/03/28 12:36:21;;;;;;;13.43;11.30;;;22.50;16.80;;;;;;10311875;28;20258;-75
2022/03/28 12:41:26;;;;;;;11.33;10.13;;;22.50;16.10;;;;;;10315012;28;20323;-75
2022/03/28 12:46:29;;;;;;;11.80;10.50;;;22.50;16.80;;;;;;10311405;28;20242;-74
2022/03/28 12:51:35;;;;;;;12.27;10.97;;;22.40;16.20;;;;;;10308598;28;20242;-75
2022/03/28 12:56:46;;;;;;;11.60;10.17;;;22.40;15.00;;;;;;10308064;28;20742;-74
2022/03/28 13:01:50;;;;;;;11.97;9.70;;;22.30;13.90;;;;;;10314790;28;21000;-77
2022/03/28 13:07:03;;;;;;;13.67;10.67;;;22.30;15.70;;;;;;10326827;28;20227;-76
2022/03/28 13:12:12;;;;;;;11.10;10.00;;;22.30;14.80;;;;;;10311117;28;20234;-78
2022/03/28 13:17:20;;;;;;;13.30;10.30;;;22.40;15.00;;;;;;10314801;28;20234;-76
2022/03/28 13:22:28;;;;;;;12.27;10.83;;;22.50;15.70;;;;;;10314044;28;20313;-76
2022/03/28 13:32:52;;;;;;;14.70;10.90;;;22.60;15.00;;;;;;10311693;28;20734;-75
2022/03/28 13:37:58;;;;;;;11.60;10.40;;;22.50;15.00;;;;;;10316128;28;20235;-76
2022/03/28 13:43:02;;;;;;;13.20;11.60;;;22.50;14.10;;;;;;10325717;28;20222;-75
2022/03/28 13:48:09;;;;;;;12.10;10.47;;;22.50;14.10;;;;;;10318510;28;20227;-76
2022/03/28 13:53:14;;;;;;;13.47;10.23;;;22.50;14.40;;;;;;10328295;28;20227;-73
2022/03/28 13:58:17;;;;;;;12.17;10.60;;;22.50;14.30;;;;;;10315446;28;21101;-73
2022/03/28 14:03:21;;;;;;;13.37;11.07;;;22.60;14.50;;;;;;10311655;28;20719;-73
2022/03/28 14:08:26;;;;;;;17.43;12.40;;;22.60;14.30;;;;;;10327950;28;20230;-74
2022/03/28 14:13:29;;;;;;;13.47;11.20;;;22.60;13.40;;;;;;10332608;28;20234;-73
2022/03/28 14:18:32;;;;;;;13.73;11.80;;;22.60;13.90;;;;;;10338087;28;20234;-73
2022/03/28 14:23:37;;;;;;;12.07;10.23;;;22.60;14.20;;;;;;10316511;28;20230;-74
2022/03/28 14:28:40;;;;;;;13.17;11.20;;;22.70;13.60;;;;;;10325671;28;20227;-74
2022/03/28 14:33:43;;;;;;;13.50;11.47;;;22.70;13.70;;;;;;10338783;28;20941;-74
2022/03/28 14:38:48;;;;;;;13.43;10.93;;;22.70;13.50;;;;;;10320341;28;20239;-74
2022/03/28 14:43:51;;;;;;;12.70;11.33;;;22.70;13.40;;;;;;10334733;28;20233;-74
2022/03/28 14:49:04;;;;;;;11.13;10.03;;;22.70;13.70;;;;;;10324266;28;20327;-74
2022/03/28 14:54:08;;;;;;;15.17;11.70;;;22.80;13.80;;;;;;10320056;28;20227;-73
2022/03/28 14:59:12;;;;;;;14.20;11.53;;;22.90;13.10;;;;;;10320855;28;20270;-73
2022/03/28 15:04:15;;;;;;;11.80;10.60;;;22.90;13.20;;;;;;10330252;28;20696;-74
2022/03/28 15:09:21;;;;;;;13.40;10.83;;;22.90;13.50;;;;;;10328137;28;20593;-74
2022/03/28 15:14:24;;;;;;;12.43;10.73;;;22.90;13.00;;;;;;10322998;28;20234;-74
2022/03/28 15:19:27;;;;;;;13.27;11.87;;;22.90;12.80;;;;;;10322945;28;20239;-74
2022/03/28 15:24:32;;;;;;;13.63;11.50;;;22.90;12.80;;;;;;10315852;28;20321;-74
2022/03/28 15:29:43;;;;;;;12.23;10.93;;;22.90;12.70;;;;;;10326341;28;20231;-75
2022/03/28 15:34:46;;;;;;;15.70;12.20;;;22.90;13.30;;;;;;10318165;28;20231;-74
2022/03/28 15:39:51;;;;;;;14.90;12.23;;;22.90;12.80;;;;;;10322973;28;20626;-74
2022/03/28 15:44:54;;;;;;;13.27;11.83;;;22.90;12.30;;;;;;10312701;28;20231;-75
2022/03/28 15:50:03;;;;;;;15.37;11.53;;;22.90;12.70;;;;;;10321624;28;20600;-74
2022/03/28 15:55:10;;;;;;;15.67;13.20;;;22.90;12.90;;;;;;10326923;28;20313;-74
2022/03/28 16:00:14;;;;;;;13.27;11.87;;;22.80;12.10;;;;;;10326590;28;20232;-74
2022/03/28 16:05:17;;;;;;;14.70;12.17;;;22.90;12.80;;;;;;10311121;28;20234;-74
2022/03/28 16:10:22;;;;;;;13.57;12.03;;;22.80;12.60;;;;;;10315487;28;20227;-74
2022/03/28 16:15:26;;;;;;;14.20;11.70;;;22.80;12.40;;;;;;10323118;28;20239;-74
2022/03/28 16:20:29;;;;;;;13.60;11.00;;;22.70;12.60;;;;;;10316582;28;21785;-75
2022/03/28 16:25:34;;;;;;;14.30;11.67;;;22.70;12.80;;;;;;10316271;28;20332;-75
2022/03/28 16:30:37;;;;;;;12.63;10.83;;;22.70;12.40;;;;;;10312197;28;20235;-75
2022/03/28 16:35:45;;;;;;;14.50;11.30;;;22.70;12.80;;;;;;10304702;28;20290;-75
2022/03/28 16:40:50;;;;;;;11.57;10.37;;;22.70;12.10;;;;;;10323528;28;20227;-75
2022/03/28 16:45:53;;;;;;;12.33;10.40;;;22.60;12.40;;;;;;10315709;28;20739;-75
2022/03/28 16:50:56;;;;;;;11.73;10.47;;;22.60;12.60;;;;;;10310609;28;20247;-75
2022/03/28 16:56:01;;;;;;;10.87;9.77;;;22.60;12.50;;;;;;10310967;28;20252;-75
2022/03/28 17:01:05;;;;;;;11.50;10.30;;;22.50;12.40;;;;;;10307576;28;20226;-75
2022/03/28 17:06:08;;;;;;;19.83;17.57;;;22.50;12.60;;;;;;10318005;28;20317;-75
2022/03/28 17:11:13;;;;;;;14.77;13.27;;;22.50;12.60;;;;;;10315313;28;20588;-75
2022/03/28 17:16:18;;;;;;;19.17;14.77;;;22.40;12.20;;;;;;10306687;28;20236;-75
2022/03/28 17:21:21;;;;;;;16.80;15.10;;;22.30;12.50;;;;;;10307775;28;20233;-76
2022/03/28 17:26:26;;;;;;;14.97;13.37;;;22.20;12.60;;;;;;10311306;28;20249;-75
2022/03/28 17:31:30;;;;;;;13.43;12.00;;;22.10;12.80;;;;;;10312184;28;20234;-76
2022/03/28 17:36:34;;;;;;;11.33;10.13;;;22.00;13.00;;;;;;10313277;28;20240;-75
2022/03/28 17:41:46;;;;;;;20.03;10.97;;;21.80;13.70;;;;;;10310626;28;20237;-76
2022/03/28 17:46:50;;;;;;;11.80;10.57;;;21.70;13.20;;;;;;10319591;28;20241;-75
2022/03/28 17:51:54;;;;;;;11.10;10.00;;;21.60;13.40;;;;;;10312978;28;20251;-75
2022/03/28 17:56:58;;;;;;;11.27;8.77;;;21.40;13.40;;;;;;10319147;28;20230;-75
2022/03/28 18:02:02;;;;;;;12.57;10.20;;;21.30;13.50;;;;;;10323199;28;20223;-76
2022/03/28 18:07:06;;;;;;;9.67;8.67;;;21.10;13.40;;;;;;10320583;28;20305;-76
2022/03/28 18:12:11;;;;;;;10.90;9.33;;;20.90;13.70;;;;;;10327449;28;20235;-76
2022/03/28 18:17:14;;;;;;;10.63;8.37;;;20.70;13.60;;;;;;10327296;28;20231;-76
2022/03/28 18:22:19;;;;;;;8.97;8.07;;;20.50;13.80;;;;;;10324217;28;20749;-76
2022/03/28 18:27:24;;;;;;;10.10;9.10;;;20.30;13.90;;;;;;10322277;28;20246;-76
2022/03/28 18:32:27;;;;;;;12.47;11.13;;;20.20;14.00;;;;;;10321154;28;20233;-76
2022/03/28 18:37:31;;;;;;;12.47;11.27;;;20.00;14.00;;;;;;10310298;28;20246;-74
2022/03/28 18:42:36;;;;;;;11.00;9.63;;;19.80;13.80;;;;;;10332784;28;20230;-76
2022/03/28 18:47:39;;;;;;;11.90;10.70;;;19.40;14.50;;;;;;10319058;28;20592;-76
2022/03/28 18:52:43;;;;;;;12.63;10.87;;;19.10;14.50;;;;;;10314276;28;20230;-76
2022/03/28 18:57:48;;;;;;;12.53;10.20;;;18.90;14.40;;;;;;10325228;28;20235;-76
2022/03/28 19:02:51;;;;;;;10.87;9.37;;;18.70;14.30;;;;;;10330203;28;20251;-77
2022/03/28 19:07:57;;;;;;;13.03;10.60;;;18.40;14.10;;;;;;10332157;28;20227;-77
2022/03/28 19:13:02;;;;;;;13.03;10.90;;;18.20;14.30;;;;;;10334490;28;20319;-77
2022/03/28 19:18:05;;;;;;;14.17;11.27;;;18.00;14.60;;;;;;10320175;28;20222;-77
2022/03/28 19:23:08;;;;;;;16.37;11.90;;;17.80;14.70;;;;;;10315683;28;20697;-78
2022/03/28 19:28:14;;;;;;;11.47;10.07;;;17.60;14.70;;;;;;10322247;28;20238;-76
2022/03/28 19:33:17;;;;;;;12.93;11.10;;;17.30;15.00;;;;;;10311789;28;20239;-75
2022/03/28 19:38:21;;;;;;;13.33;11.27;;;17.10;15.20;;;;;;10321948;28;20239;-77
2022/03/28 19:43:28;;;;;;;12.33;10.80;;;17.00;15.30;;;;;;10325636;28;20241;-77
2022/03/28 19:48:31;;;;;;;15.80;12.03;;;16.90;15.50;;;;;;10313167;28;20231;-76
2022/03/28 19:53:39;;;;;;;16.10;11.93;;;16.90;15.50;;;;;;10317647;28;21102;-76
2022/03/28 19:58:44;;;;;;;13.33;11.97;;;16.80;15.50;;;;;;10310855;28;20321;-76
2022/03/28 20:03:48;;;;;;;16.87;13.47;;;16.60;15.60;;;;;;10311507;28;20233;-75
2022/03/28 20:08:51;;;;;;;14.03;12.30;;;16.40;15.60;;;;;;10314432;28;20239;-75
2022/03/28 20:13:57;;;;;;;20.40;16.17;;;16.30;15.70;;;;;;10322851;28;20228;-75
2022/03/28 20:19:00;;;;;;;24.30;19.30;;;16.30;16.00;;;;;;10326221;28;20245;-75
2022/03/28 20:24:04;;;;;;;35.43;21.20;;;16.20;15.70;;;;;;10321220;28;20229;-75
2022/03/28 20:29:09;;;;;;;37.60;23.77;;;15.90;15.70;;;;;;10317443;28;20634;-75
2022/03/28 20:34:13;;;;;;;28.60;19.37;;;15.60;16.10;;;;;;10317603;28;20231;-75
2022/03/28 20:39:17;;;;;;;20.37;14.53;;;15.40;16.10;;;;;;10305887;28;20704;-75
2022/03/28 20:44:22;;;;;;;19.13;13.90;;;15.20;16.20;;;;;;10317962;28;20241;-75
2022/03/28 20:49:25;;;;;;;15.13;12.67;;;15.00;16.60;;;;;;10320827;28;20243;-75
2022/03/28 20:54:29;;;;;;;16.20;11.83;;;14.90;16.60;;;;;;10322845;28;20232;-75
2022/03/28 20:59:34;;;;;;;13.50;11.60;;;14.90;16.60;;;;;;10324028;28;20595;-77
2022/03/28 21:04:37;;;;;;;11.97;10.67;;;14.80;16.80;;;;;;10325823;28;20646;-76
2022/03/28 21:09:40;;;;;;;11.37;10.27;;;14.80;16.70;;;;;;10333659;28;20234;-76
2022/03/28 21:14:45;;;;;;;20.00;12.43;;;14.70;16.80;;;;;;10329455;28;20223;-76
2022/03/28 21:19:49;;;;;;;17.50;12.70;;;14.70;17.10;;;;;;10323816;28;20659;-76
2022/03/28 21:24:54;;;;;;;16.87;12.17;;;14.60;16.90;;;;;;10324462;28;20248;-76
2022/03/28 21:29:59;;;;;;;12.53;11.20;;;14.40;17.00;;;;;;10319392;28;20231;-76
2022/03/28 21:35:03;;;;;;;16.37;12.10;;;14.20;17.10;;;;;;10311501;28;20239;-75
2022/03/28 21:40:09;;;;;;;17.17;12.40;;;14.10;17.20;;;;;;10288435;28;20242;-74
2022/03/28 21:45:13;;;;;;;16.03;12.23;;;14.10;17.40;;;;;;10287544;28;20399;-75
2022/03/28 21:50:18;;;;;;;14.87;12.00;;;14.00;17.50;;;;;;10286987;28;20608;-74
2022/03/28 21:55:21;;;;;;;15.53;12.33;;;13.90;17.30;;;;;;10286804;28;20253;-74
2022/03/28 22:00:41;;;;;;;14.33;12.63;;;13.80;17.40;;;;;;10286562;28;20236;-75
2022/03/28 22:05:45;;;;;;;14.03;12.53;;;13.70;18.10;;;;;;10286524;28;20231;-74
2022/03/28 22:10:49;;;;;;;16.67;12.00;;;13.50;17.40;;;;;;10286435;28;20432;-75
2022/03/28 22:15:53;;;;;;;13.17;11.57;;;13.20;17.60;;;;;;10286622;28;20613;-74
2022/03/28 22:20:57;;;;;;;11.60;10.07;;;13.00;17.90;;;;;;10286228;28;20727;-74
2022/03/28 22:26:00;;;;;;;13.23;10.63;;;12.90;17.80;;;;;;10285401;28;20251;-74
2022/03/28 22:31:05;;;;;;;16.63;12.63;;;12.90;18.00;;;;;;10281615;28;20239;-75
2022/03/28 22:36:08;;;;;;;12.10;10.80;;;12.90;18.30;;;;;;10285681;28;20231;-73
2022/03/28 22:41:12;;;;;;;13.27;11.60;;;12.80;17.90;;;;;;10285775;28;20243;-74
2022/03/28 22:46:16;;;;;;;12.37;10.70;;;12.80;18.10;;;;;;10285901;28;20244;-74
2022/03/28 22:51:19;;;;;;;17.03;12.27;;;12.70;18.80;;;;;;10294005;28;20258;-75
2022/03/28 22:56:23;;;;;;;16.33;12.20;;;12.70;18.20;;;;;;10325859;28;20242;-73
2022/03/28 23:01:27;;;;;;;14.00;11.93;;;12.60;18.20;;;;;;10325575;28;20227;-74
2022/03/28 23:06:31;;;;;;;13.23;11.83;;;12.60;18.60;;;;;;10325209;28;20604;-74
2022/03/28 23:11:34;;;;;;;16.03;11.73;;;12.60;18.40;;;;;;10325275;28;20584;-74
2022/03/28 23:16:39;;;;;;;16.43;12.17;;;12.50;18.50;;;;;;10315434;28;20230;-75
2022/03/28 23:21:42;;;;;;;16.37;11.63;;;12.40;18.80;;;;;;10306421;28;20253;-75
2022/03/28 23:26:45;;;;;;;12.63;11.23;;;12.40;18.60;;;;;;10319446;28;20234;-76
2022/03/28 23:31:50;;;;;;;14.87;12.20;;;12.30;18.70;;;;;;10318977;28;20234;-76
2022/03/28 23:36:53;;;;;;;13.60;12.10;;;12.20;19.00;;;;;;10312845;28;20228;-76
2022/03/28 23:41:56;;;;;;;12.13;10.93;;;12.20;18.80;;;;;;10313708;28;20234;-76
2022/03/28 23:47:01;;;;;;;12.80;11.23;;;12.10;18.80;;;;;;10320925;28;20245;-76
2022/03/28 23:52:05;;;;;;;12.17;10.93;;;12.10;19.20;;;;;;10322180;28;20235;-76
2022/03/28 23:57:08;;;;;;;16.00;11.67;;;12.10;19.10;;;;;;10326959;28;20245;-76
